Main page
METAR-TAF:

METAR-TAF

Airports :

Birjand, Iran

Birjand International Airport

latitude: 32-52N, longitude: 059-12E, elevation: 1491 m

Current weather observation

The report was made 40 minutes ago, at 03:00 UTC
Wind 6 kt from the East
Temperature 12°C
Humidity 17%
Pressure 1023 hPa
Visibility 10 km or more
no clouds below 1500 m and no cumulonimbus

METAR: OIMB 290300Z 10006KT CAVOK 12/M12 Q1023

Time: 08:10 (03:40 UTC)


TAF: missing

Weather observations and forecasts of more than 4000 airports (METAR and TAF reports).

The available stations are represented by yellow and red dots on the map.

Hover mouse over dot to see the name of the station.

Then click to see weather observations and forecasts.

To change the map : click on the green buttons with a black cross to zoom in, on the green button with a dash to zoom out, or on the green arrows for adjacent maps.


METAR-TAF: